Decoded Metar for FMMI (ANTANANARIVO in MADAGASCAR) (IATA:TNR) | Meteo·Mobile Aviation Weather
aviador You're here:

FMMI Decoded Metar

ANTANANARIVO in MADAGASCAR
Report Time2018-09-22 03:30:00
UTC Time2018-09-22 03:37:44
Flight Rules vfr VFR
WindCalm
Visibility8000 m
Phenomena:N/A
Clouds:Few 010 Hf
CeilingNone
Temp11°C (ISA +4)
Dew Point11°C (100% RH)
QNH1023 hPa
Density Alt4,551 ft
Elevation4,186 ft
Report Wrong Elevation
Raw Report
METAR FMMI 220330Z 00000KT 8000 FEW010 11/11 Q1023 TEMPO 4000 BR=

Extra information for FMMI:More info

Metar Taf Metar & Taf Last 4 Metars F.Rules Stats Wind Profile Meteogram Temp Stats Airport Information Weather charts Add Link Nearby VenuesMetar ALERT Operation Metar Decoded Social comments